Historical Data

TheSutherlands

Weather at Humberside Airport

Current Weather from Humberside Airport

The information displayed on this page is from the METAR reports produced by Humberside Airport. Note that there are times when these are not generated.

Weather Report

Coded Weather Report: 2019/10/18 00:50 EGNJ 180050Z AUTO 17010KT 9999 FEW009/// 11/10 Q0999

Report issued: 2019/10/18 at 00:50 UTC

Weather: Code: AUTO
Wind: gentle breeze from the south (170 degrees) at 10 knots (12 mph, 19 kph, Force 3)
Visibility: 10km or more
Cloud: a few clouds at 900 feet
Temperature: 11 C
Dewpoint: 10 C
Humidity: 94%
Pressure: 0999 hPa